createdAt,value
2022-08-29T00:01:03.904Z,61.05
2022-08-29T00:03:32.357Z,57.53
2022-08-29T00:06:02.740Z,54.90
2022-08-29T00:08:31.382Z,56.33
2022-08-29T00:10:58.291Z,59.70
2022-08-29T00:13:25.258Z,55.35
2022-08-29T00:15:51.789Z,63.75
2022-08-29T00:18:20.510Z,55.58
2022-08-29T00:20:47.445Z,51.70
2022-08-29T00:23:14.091Z,49.20
2022-08-29T00:25:40.688Z,53.33
2022-08-29T00:28:07.638Z,51.92
2022-08-29T00:30:35.291Z,47.25
2022-08-29T00:33:02.207Z,49.67
2022-08-29T00:35:32.392Z,48.00
2022-08-29T00:38:00.560Z,47.65
2022-08-29T00:40:35.388Z,52.13
2022-08-29T00:43:02.268Z,50.92
2022-08-29T00:45:29.385Z,52.20
2022-08-29T00:48:00.744Z,49.78
2022-08-29T00:50:38.652Z,44.03
2022-08-29T00:53:08.804Z,48.40
2022-08-29T00:55:37.370Z,45.25
2022-08-29T00:58:28.354Z,42.55
2022-08-29T01:00:55.347Z,40.78
2022-08-29T01:03:21.999Z,35.42
2022-08-29T01:05:48.975Z,30.67
2022-08-29T01:11:04.975Z,26.75
2022-08-29T01:13:36.281Z,22.58
2022-08-29T01:16:05.359Z,24.30
2022-08-29T01:23:17.891Z,32.05
2022-08-29T01:25:48.519Z,29.55
2022-08-29T01:28:32.175Z,27.60
2022-08-29T01:31:06.596Z,28.27
2022-08-29T01:35:58.052Z,30.13
2022-08-29T01:38:30.368Z,33.63
2022-08-29T01:40:59.327Z,34.55
2022-08-29T01:45:50.589Z,37.25
2022-08-29T01:48:18.613Z,31.85
2022-08-29T01:50:46.511Z,36.08
2022-08-29T01:53:13.880Z,39.55
2022-08-29T01:55:40.971Z,40.28
2022-08-29T01:58:09.084Z,38.00
2022-08-29T02:00:36.016Z,41.60
2022-08-29T02:03:03.411Z,42.22
2022-08-29T02:05:31.232Z,43.47
2022-08-29T02:07:58.140Z,44.15
2022-08-29T02:10:25.044Z,38.38
2022-08-29T02:12:53.729Z,51.95
2022-08-29T02:15:21.520Z,53.40
2022-08-29T02:17:48.666Z,51.85
2022-08-29T02:20:16.228Z,58.10
2022-08-29T02:22:42.920Z,53.97
2022-08-29T02:25:30.151Z,53.85
2022-08-29T02:27:57.633Z,55.25
2022-08-29T02:30:25.575Z,56.58
2022-08-29T02:32:52.919Z,54.78
2022-08-29T02:35:19.810Z,53.78
2022-08-29T02:37:47.593Z,52.78
2022-08-29T02:40:14.325Z,57.65
2022-08-29T02:42:40.980Z,55.63
2022-08-29T02:45:08.439Z,63.85
2022-08-29T02:47:38.495Z,54.73
2022-08-29T02:50:06.773Z,57.72
2022-08-29T02:52:37.106Z,54.50
2022-08-29T02:55:04.476Z,59.38
2022-08-29T02:57:31.012Z,52.47
2022-08-29T02:59:57.598Z,57.63
2022-08-29T03:02:24.328Z,57.20
2022-08-29T03:04:51.051Z,57.75
2022-08-29T03:07:17.865Z,63.60
2022-08-29T03:09:44.826Z,59.00
2022-08-29T03:12:11.380Z,58.67
2022-08-29T03:14:38.061Z,58.60
2022-08-29T03:17:05.014Z,65.35
2022-08-29T03:19:31.666Z,52.10
2022-08-29T03:22:04.131Z,52.10
2022-08-29T03:24:30.808Z,60.85
2022-08-29T03:26:58.913Z,54.72
2022-08-29T03:29:26.094Z,49.90
2022-08-29T03:31:53.783Z,55.78
2022-08-29T03:34:20.520Z,55.05
2022-08-29T03:36:47.099Z,47.03
2022-08-29T03:39:13.660Z,54.83
2022-08-29T03:41:40.507Z,57.85
2022-08-29T03:44:07.125Z,55.15
2022-08-29T03:46:35.966Z,59.78
2022-08-29T03:49:02.609Z,65.93
2022-08-29T03:51:31.509Z,66.47
2022-08-29T03:53:58.409Z,61.88
2022-08-29T03:56:26.250Z,65.90
2022-08-29T03:58:53.576Z,75.70
2022-08-29T04:01:24.371Z,69.60
2022-08-29T04:03:51.371Z,72.97
2022-08-29T04:08:34.185Z,78.57
2022-08-29T04:11:00.788Z,78.20
2022-08-29T04:13:27.343Z,79.10
2022-08-29T04:15:53.966Z,78.53
2022-08-29T04:18:21.627Z,85.07
2022-08-29T04:20:49.255Z,78.05
2022-08-29T04:23:15.988Z,76.18
2022-08-29T04:25:43.791Z,80.75
2022-08-29T04:28:12.754Z,79.00
2022-08-29T04:30:40.174Z,73.63
2022-08-29T04:33:08.095Z,79.53
2022-08-29T04:35:40.753Z,79.07
2022-08-29T04:38:08.468Z,76.75
2022-08-29T04:40:37.543Z,66.57
2022-08-29T04:43:04.251Z,76.10
2022-08-29T04:45:30.940Z,67.68
2022-08-29T04:48:00.705Z,70.70
2022-08-29T04:50:30.277Z,77.30
2022-08-29T04:52:56.913Z,75.15
2022-08-29T04:55:25.738Z,74.57
2022-08-29T04:57:56.295Z,74.57
2022-08-29T05:00:26.553Z,74.70
2022-08-29T05:02:53.141Z,75.90
2022-08-29T05:05:19.847Z,71.22
2022-08-29T05:07:46.499Z,82.07
2022-08-29T05:10:18.976Z,81.90
2022-08-29T05:12:46.417Z,80.07
2022-08-29T05:15:14.494Z,78.47
2022-08-29T05:17:41.567Z,78.90
2022-08-29T05:20:08.690Z,74.60
2022-08-29T05:22:37.743Z,78.32
2022-08-29T05:27:22.285Z,78.57
2022-08-29T05:29:51.398Z,71.50
2022-08-29T05:32:21.409Z,89.22
2022-08-29T05:34:49.728Z,66.82
2022-08-29T05:37:19.699Z,72.50
2022-08-29T05:39:47.250Z,66.78
2022-08-29T05:42:16.357Z,78.10
2022-08-29T05:44:42.989Z,75.53
2022-08-29T05:47:12.316Z,74.60
2022-08-29T05:49:41.284Z,76.32
2022-08-29T05:52:08.913Z,74.68
2022-08-29T05:54:38.541Z,78.65
2022-08-29T05:59:18.703Z,73.18
2022-08-29T06:04:14.075Z,72.20
2022-08-29T06:06:41.752Z,77.95
2022-08-29T06:09:09.260Z,66.38
2022-08-29T06:11:35.833Z,65.72
2022-08-29T06:14:02.583Z,64.97
2022-08-29T06:16:30.264Z,58.60
2022-08-29T06:18:57.234Z,57.85
2022-08-29T06:21:24.106Z,61.45
2022-08-29T06:23:51.280Z,57.47
2022-08-29T06:26:19.616Z,49.10
2022-08-29T06:28:46.755Z,51.92
2022-08-29T06:31:13.359Z,58.00
2022-08-29T06:33:40.212Z,56.65
2022-08-29T06:36:08.661Z,46.65
2022-08-29T06:40:57.472Z,55.03
2022-08-29T06:43:26.490Z,44.90
2022-08-29T06:45:53.109Z,36.88
2022-08-29T06:48:20.580Z,39.83
2022-08-29T06:50:47.260Z,36.90
2022-08-29T06:53:26.925Z,47.05
2022-08-29T06:55:55.603Z,34.20
2022-08-29T07:00:49.047Z,27.13
2022-08-29T07:03:16.876Z,26.90
2022-08-29T07:05:43.620Z,27.90
2022-08-29T07:08:10.213Z,27.20
2022-08-29T07:10:36.876Z,22.77
2022-08-29T07:13:03.689Z,18.55
2022-08-29T07:15:30.262Z,18.23
2022-08-29T07:18:00.008Z,19.67
2022-08-29T07:20:26.865Z,16.38
2022-08-29T07:22:53.389Z,21.60
2022-08-29T07:25:21.040Z,20.67
2022-08-29T07:27:52.036Z,18.83
2022-08-29T07:30:20.739Z,15.18
2022-08-29T07:32:47.472Z,19.27
2022-08-29T07:35:19.831Z,14.68
2022-08-29T07:37:57.700Z,18.25
2022-08-29T07:40:26.434Z,14.85
2022-08-29T07:42:53.375Z,12.13
2022-08-29T07:45:20.157Z,15.65
2022-08-29T07:47:46.848Z,11.75
2022-08-29T07:50:14.828Z,11.98
2022-08-29T07:52:41.481Z,11.05
2022-08-29T07:55:08.804Z,12.07
2022-08-29T07:57:39.607Z,14.88
2022-08-29T08:00:10.731Z,14.80
2022-08-29T08:02:39.037Z,16.35
2022-08-29T08:05:07.024Z,13.35
2022-08-29T08:07:35.232Z,14.13
2022-08-29T08:10:03.614Z,23.98
2022-08-29T08:12:30.582Z,18.27
2022-08-29T08:14:57.920Z,18.45
2022-08-29T08:17:27.039Z,16.55
2022-08-29T08:19:53.600Z,14.80
2022-08-29T08:22:20.265Z,15.02
2022-08-29T08:24:48.461Z,16.13
2022-08-29T08:27:15.035Z,20.73
2022-08-29T08:29:43.844Z,11.77
2022-08-29T08:32:10.420Z,14.02
2022-08-29T08:34:36.968Z,16.67
2022-08-29T08:37:07.942Z,12.15
2022-08-29T08:42:22.966Z,18.75
2022-08-29T08:45:13.251Z,17.85
2022-08-29T08:47:45.319Z,15.20
2022-08-29T08:50:18.592Z,11.20
2022-08-29T08:52:58.866Z,10.38
2022-08-29T08:55:28.363Z,10.48
2022-08-29T08:58:06.722Z,12.32
2022-08-29T09:00:43.121Z,13.15
2022-08-29T09:03:34.654Z,12.88
2022-08-29T09:06:22.400Z,12.32
2022-08-29T09:09:14.425Z,13.05
2022-08-29T09:11:54.622Z,12.05
2022-08-29T09:14:29.780Z,8.82
2022-08-29T09:17:00.350Z,14.27
2022-08-29T09:19:27.000Z,13.30
2022-08-29T09:21:59.547Z,12.45
2022-08-29T09:24:50.353Z,11.20
2022-08-29T09:27:19.555Z,18.50
2022-08-29T09:32:20.314Z,17.92
2022-08-29T09:37:36.113Z,11.88
2022-08-29T09:40:03.049Z,10.23
2022-08-29T09:42:36.459Z,8.80
2022-08-29T09:45:20.129Z,16.63
2022-08-29T09:47:46.761Z,14.52
2022-08-29T09:50:26.089Z,14.70
2022-08-29T09:52:58.534Z,12.38
2022-08-29T09:55:32.691Z,12.65
2022-08-29T09:58:10.257Z,11.25
2022-08-29T10:00:39.857Z,13.40
2022-08-29T10:03:10.712Z,16.98
2022-08-29T10:05:46.872Z,13.75
2022-08-29T10:08:37.872Z,9.98
2022-08-29T10:11:21.904Z,11.88
2022-08-29T10:13:56.088Z,11.55
2022-08-29T10:16:38.202Z,11.23
2022-08-29T10:19:11.873Z,14.38
2022-08-29T10:22:13.919Z,15.50
2022-08-29T10:24:54.356Z,10.38
2022-08-29T10:27:32.569Z,13.30
2022-08-29T10:30:08.167Z,11.85
2022-08-29T10:32:43.927Z,13.63
2022-08-29T10:35:29.752Z,15.13
2022-08-29T10:38:15.639Z,12.45
2022-08-29T10:40:47.699Z,10.93
2022-08-29T10:43:23.144Z,9.07
2022-08-29T10:46:27.385Z,13.20
2022-08-29T10:49:06.683Z,14.45
2022-08-29T10:51:54.365Z,9.32
2022-08-29T10:54:35.740Z,12.48
2022-08-29T10:57:04.635Z,11.98
2022-08-29T11:00:04.802Z,11.85
2022-08-29T11:02:39.514Z,13.25
2022-08-29T11:05:15.192Z,11.80
2022-08-29T11:07:56.123Z,8.23
2022-08-29T11:10:27.329Z,6.90
2022-08-29T11:13:18.223Z,9.95
2022-08-29T11:15:55.643Z,9.50
2022-08-29T11:18:46.373Z,11.20
2022-08-29T11:21:29.383Z,12.23
2022-08-29T11:23:58.379Z,13.82
2022-08-29T11:26:33.728Z,9.65
2022-08-29T11:29:37.004Z,13.68
2022-08-29T11:32:09.675Z,11.32
2022-08-29T11:35:09.487Z,11.27
2022-08-29T11:37:48.212Z,12.90
2022-08-29T11:40:17.753Z,16.60
2022-08-29T11:42:52.072Z,13.13
2022-08-29T11:45:35.463Z,11.77
2022-08-29T11:48:31.299Z,14.40
2022-08-29T11:50:59.298Z,18.05
2022-08-29T11:56:12.184Z,16.90
2022-08-29T11:58:42.885Z,12.85
2022-08-29T12:01:35.328Z,15.95
2022-08-29T12:04:06.968Z,13.13
2022-08-29T12:09:13.906Z,15.07
2022-08-29T12:11:59.329Z,15.30
2022-08-29T12:14:37.896Z,13.95
2022-08-29T12:17:51.142Z,16.52
2022-08-29T12:20:31.665Z,12.45
2022-08-29T12:23:03.996Z,16.42
2022-08-29T12:25:33.788Z,14.23
2022-08-29T12:28:06.028Z,14.63
2022-08-29T12:30:44.322Z,14.80
2022-08-29T12:33:53.963Z,13.65
2022-08-29T12:36:52.169Z,17.90
2022-08-29T12:39:27.846Z,15.35
2022-08-29T12:42:27.253Z,12.65
2022-08-29T12:45:19.084Z,15.27
2022-08-29T12:50:32.662Z,15.55
2022-08-29T12:53:07.574Z,12.50
2022-08-29T12:55:42.071Z,15.10
2022-08-29T12:58:10.522Z,15.68
2022-08-29T13:00:37.306Z,12.98
2022-08-29T13:03:14.849Z,14.48
2022-08-29T13:05:42.548Z,16.70
2022-08-29T13:08:26.370Z,11.70
2022-08-29T13:10:57.332Z,10.95
2022-08-29T13:13:27.877Z,12.93
2022-08-29T13:15:57.554Z,13.98
2022-08-29T13:18:24.569Z,13.18
2022-08-29T13:21:19.103Z,13.48
2022-08-29T13:23:57.712Z,15.65
2022-08-29T13:26:29.003Z,19.75
2022-08-29T13:29:11.073Z,12.98
2022-08-29T13:31:39.597Z,11.00
2022-08-29T13:34:14.042Z,11.30
2022-08-29T13:36:46.840Z,10.73
2022-08-29T13:39:19.214Z,10.25
2022-08-29T13:44:48.825Z,13.05
2022-08-29T13:47:25.332Z,9.45
2022-08-29T13:49:58.032Z,10.65
2022-08-29T13:52:31.369Z,9.40
2022-08-29T13:54:59.442Z,15.48
2022-08-29T13:57:29.290Z,10.02
2022-08-29T13:59:57.794Z,13.98
2022-08-29T14:02:25.194Z,12.48
2022-08-29T14:04:52.072Z,10.25
2022-08-29T14:07:25.544Z,16.70
2022-08-29T14:09:52.560Z,8.63
2022-08-29T14:12:19.467Z,12.48
2022-08-29T14:14:48.249Z,12.13
2022-08-29T14:17:18.498Z,14.20
2022-08-29T14:19:47.068Z,10.27
2022-08-29T14:22:14.421Z,12.00
2022-08-29T14:24:41.781Z,8.38
2022-08-29T14:27:09.258Z,13.45
2022-08-29T14:29:36.063Z,10.50
2022-08-29T14:32:03.525Z,13.45
2022-08-29T14:34:32.407Z,9.05
2022-08-29T14:36:59.650Z,10.73
2022-08-29T14:39:26.612Z,11.07
2022-08-29T14:41:54.521Z,10.77
2022-08-29T14:44:22.137Z,15.40
2022-08-29T14:46:49.250Z,10.73
2022-08-29T14:49:16.048Z,13.52
2022-08-29T14:51:44.238Z,10.32
2022-08-29T14:54:11.423Z,9.95
2022-08-29T14:56:51.664Z,14.05
2022-08-29T14:59:19.650Z,9.70
2022-08-29T15:01:52.651Z,10.48
2022-08-29T15:04:35.037Z,11.77
2022-08-29T15:07:08.350Z,10.68
2022-08-29T15:09:35.156Z,9.23
2022-08-29T15:14:27.578Z,8.95
2022-08-29T15:16:54.252Z,10.45
2022-08-29T15:22:09.267Z,12.40
2022-08-29T15:24:36.300Z,12.85
2022-08-29T15:27:03.992Z,11.80
2022-08-29T15:29:30.940Z,15.80
2022-08-29T15:31:57.617Z,9.93
2022-08-29T15:34:25.764Z,9.40
2022-08-29T15:36:54.151Z,13.40
2022-08-29T15:39:21.569Z,11.68
2022-08-29T15:44:04.420Z,8.10
2022-08-29T15:46:31.035Z,12.95
2022-08-29T15:48:57.652Z,8.07
2022-08-29T15:51:27.409Z,11.30
2022-08-29T15:53:53.972Z,9.93
2022-08-29T15:56:20.631Z,6.95
2022-08-29T15:58:48.275Z,8.60
2022-08-29T16:01:15.916Z,14.35
2022-08-29T16:03:43.419Z,14.75
2022-08-29T16:06:10.874Z,11.57
2022-08-29T16:08:37.706Z,9.98
2022-08-29T16:11:12.676Z,9.80
2022-08-29T16:13:39.229Z,15.38
2022-08-29T16:16:06.740Z,13.18
2022-08-29T16:18:33.348Z,9.77
2022-08-29T16:21:00.142Z,10.63
2022-08-29T16:23:26.797Z,10.50
2022-08-29T16:25:53.482Z,9.38
2022-08-29T16:28:20.034Z,8.98
2022-08-29T16:30:49.568Z,8.43
2022-08-29T16:35:30.706Z,11.52
2022-08-29T16:38:02.817Z,8.18
2022-08-29T16:40:31.432Z,10.45
2022-08-29T16:42:58.121Z,10.35
2022-08-29T16:45:24.862Z,8.43
2022-08-29T16:47:56.741Z,8.95
2022-08-29T16:50:27.073Z,10.60
2022-08-29T16:52:54.207Z,10.60
2022-08-29T16:55:21.224Z,9.57
2022-08-29T16:58:07.910Z,11.93
2022-08-29T17:00:35.096Z,8.68
2022-08-29T17:05:33.717Z,10.30
2022-08-29T17:08:00.325Z,14.27
2022-08-29T17:10:26.908Z,14.70
2022-08-29T17:12:53.704Z,6.65
2022-08-29T17:15:20.297Z,7.55
2022-08-29T17:17:47.488Z,7.03
2022-08-29T17:20:14.988Z,9.02
2022-08-29T17:22:41.587Z,9.30
2022-08-29T17:25:08.578Z,8.70
2022-08-29T17:27:35.176Z,12.93
2022-08-29T17:30:03.585Z,11.75
2022-08-29T17:32:30.228Z,12.63
2022-08-29T17:34:56.896Z,14.48
2022-08-29T17:37:23.499Z,7.75
2022-08-29T17:39:50.041Z,14.30
2022-08-29T17:42:16.629Z,8.60
2022-08-29T17:44:45.479Z,8.90
2022-08-29T17:47:12.310Z,12.65
2022-08-29T17:49:39.535Z,7.38
2022-08-29T17:52:06.125Z,12.20
2022-08-29T17:54:32.737Z,14.50
2022-08-29T17:57:00.882Z,11.90
2022-08-29T17:59:31.371Z,13.98
2022-08-29T18:01:58.761Z,15.13
2022-08-29T18:04:26.891Z,13.77
2022-08-29T18:06:55.243Z,17.80
2022-08-29T18:09:22.893Z,10.05
2022-08-29T18:11:51.523Z,10.85
2022-08-29T18:14:20.484Z,10.10
2022-08-29T18:16:47.310Z,11.27
2022-08-29T18:19:14.213Z,10.50
2022-08-29T18:21:43.279Z,10.90
2022-08-29T18:24:13.815Z,12.40
2022-08-29T18:26:46.060Z,11.85
2022-08-29T18:29:13.688Z,7.95
2022-08-29T18:34:11.431Z,13.40
2022-08-29T18:36:41.165Z,7.05
2022-08-29T18:39:11.691Z,12.40
2022-08-29T18:41:38.723Z,8.45
2022-08-29T18:44:05.819Z,14.45
2022-08-29T18:46:33.347Z,8.07
2022-08-29T18:49:00.071Z,8.70
2022-08-29T18:51:27.603Z,16.77
2022-08-29T18:53:54.747Z,15.57
2022-08-29T18:56:21.453Z,8.60
2022-08-29T18:58:47.992Z,13.13
2022-08-29T19:01:27.871Z,7.88
2022-08-29T19:04:00.818Z,15.88
2022-08-29T19:06:27.781Z,17.23
2022-08-29T19:08:56.432Z,9.82
2022-08-29T19:11:25.329Z,11.55
2022-08-29T19:13:54.538Z,11.43
2022-08-29T19:16:21.987Z,13.30
2022-08-29T19:18:48.867Z,15.60
2022-08-29T19:21:15.494Z,13.15
2022-08-29T19:23:45.426Z,15.27
2022-08-29T19:26:17.181Z,12.60
2022-08-29T19:28:47.214Z,11.57
2022-08-29T19:31:15.673Z,13.75
2022-08-29T19:33:44.087Z,17.08
2022-08-29T19:36:10.881Z,13.65
2022-08-29T19:38:38.724Z,11.77
2022-08-29T19:41:09.582Z,13.70
2022-08-29T19:43:36.868Z,11.98
2022-08-29T19:46:11.002Z,14.27
2022-08-29T19:48:41.566Z,10.60
2022-08-29T19:51:10.225Z,11.77
2022-08-29T19:53:42.707Z,9.38
2022-08-29T19:56:12.382Z,16.40
2022-08-29T19:58:40.232Z,16.70
2022-08-29T20:01:09.225Z,9.73
2022-08-29T20:03:41.254Z,17.45
2022-08-29T20:06:08.668Z,12.85
2022-08-29T20:08:46.946Z,12.70
2022-08-29T20:11:19.028Z,14.70
2022-08-29T20:13:50.511Z,10.45
2022-08-29T20:18:46.382Z,17.73
2022-08-29T20:21:16.366Z,11.35
2022-08-29T20:23:49.660Z,10.15
2022-08-29T20:26:17.402Z,11.40
2022-08-29T20:28:44.080Z,12.80
2022-08-29T20:31:11.020Z,11.73
2022-08-29T20:33:41.266Z,12.93
2022-08-29T20:36:27.329Z,12.82
2022-08-29T20:38:54.316Z,10.82
2022-08-29T20:41:21.723Z,14.00
2022-08-29T20:43:48.649Z,12.57
2022-08-29T20:46:15.373Z,10.30
2022-08-29T20:48:42.229Z,13.02
2022-08-29T20:51:10.127Z,9.98
2022-08-29T20:53:38.156Z,10.88
2022-08-29T20:56:05.527Z,13.65
2022-08-29T20:58:32.842Z,18.30
2022-08-29T21:01:00.766Z,11.70
2022-08-29T21:03:46.267Z,12.73
2022-08-29T21:06:12.867Z,13.18
2022-08-29T21:08:40.993Z,22.27
2022-08-29T21:11:07.832Z,13.57
2022-08-29T21:13:34.442Z,10.52
2022-08-29T21:16:07.449Z,15.20
2022-08-29T21:18:34.521Z,13.88
2022-08-29T21:21:01.373Z,44.17
2022-08-29T21:23:28.216Z,10.95
2022-08-29T21:25:57.784Z,10.15
2022-08-29T21:30:47.421Z,17.17
2022-08-29T21:33:14.016Z,17.13
2022-08-29T21:35:41.072Z,15.52
2022-08-29T21:38:08.525Z,11.27
2022-08-29T21:40:35.778Z,14.85
2022-08-29T21:43:10.601Z,12.00
2022-08-29T21:45:40.413Z,13.57
2022-08-29T21:48:07.102Z,13.40
2022-08-29T21:50:33.805Z,13.77
2022-08-29T21:53:00.489Z,13.18
2022-08-29T21:55:27.081Z,15.93
2022-08-29T21:57:58.247Z,10.10
2022-08-29T22:00:32.590Z,12.93
2022-08-29T22:03:01.436Z,12.98
2022-08-29T22:05:28.660Z,15.07
2022-08-29T22:07:58.365Z,17.10
2022-08-29T22:10:28.937Z,16.17
2022-08-29T22:12:55.596Z,13.25
2022-08-29T22:15:41.140Z,11.00
2022-08-29T22:18:09.090Z,15.20
2022-08-29T22:20:37.595Z,12.20
2022-08-29T22:23:06.660Z,14.02
2022-08-29T22:25:33.737Z,15.85
2022-08-29T22:28:00.795Z,14.02
2022-08-29T22:30:28.880Z,19.50
2022-08-29T22:33:00.088Z,16.50
2022-08-29T22:35:27.928Z,14.50
2022-08-29T22:37:54.859Z,10.57
2022-08-29T22:40:21.565Z,12.63
2022-08-29T22:42:48.300Z,15.30
2022-08-29T22:45:16.413Z,12.60
2022-08-29T22:47:44.363Z,16.63
2022-08-29T22:50:14.943Z,18.73
2022-08-29T22:52:41.688Z,15.70
2022-08-29T22:55:11.568Z,13.23
2022-08-29T22:57:38.405Z,14.48
2022-08-29T23:00:07.346Z,15.40
2022-08-29T23:02:34.090Z,10.18
2022-08-29T23:05:00.740Z,16.10
2022-08-29T23:07:27.360Z,11.13
2022-08-29T23:09:53.936Z,15.07
2022-08-29T23:12:20.527Z,11.75
2022-08-29T23:14:47.376Z,24.20
2022-08-29T23:17:15.235Z,18.50
2022-08-29T23:19:41.883Z,15.65
2022-08-29T23:22:10.980Z,17.83
2022-08-29T23:24:39.271Z,16.33
2022-08-29T23:27:07.960Z,20.00
2022-08-29T23:29:36.509Z,15.27
2022-08-29T23:32:08.856Z,17.90
2022-08-29T23:34:35.432Z,16.50
2022-08-29T23:37:02.125Z,20.08
2022-08-29T23:39:28.735Z,17.27
2022-08-29T23:41:55.717Z,20.30
2022-08-29T23:44:22.304Z,25.00
2022-08-29T23:46:48.942Z,20.35
2022-08-29T23:49:15.481Z,18.15
2022-08-29T23:51:42.235Z,26.05
2022-08-29T23:54:08.818Z,17.85
2022-08-29T23:56:35.491Z,26.40
2022-08-29T23:59:02.020Z,22.58
